sensor_id;sensor_type;location;lat;lon;timestamp;P1;durP1;ratioP1;P2;durP2;ratioP2
3549;SDS011;45572;48.804;8.330;2022-11-20T00:02:04;0.50;;;0.30;;
3549;SDS011;45572;48.804;8.330;2022-11-20T00:04:32;0.60;;;0.60;;
3549;SDS011;45572;48.804;8.330;2022-11-20T00:07:00;0.50;;;0.30;;
3549;SDS011;45572;48.804;8.330;2022-11-20T00:09:28;2.83;;;2.58;;
3549;SDS011;45572;48.804;8.330;2022-11-20T00:11:57;0.40;;;0.30;;
3549;SDS011;45572;48.804;8.330;2022-11-20T00:14:24;0.50;;;0.30;;
3549;SDS011;45572;48.804;8.330;2022-11-20T00:16:52;0.50;;;0.30;;
3549;SDS011;45572;48.804;8.330;2022-11-20T00:19:20;0.50;;;0.30;;
3549;SDS011;45572;48.804;8.330;2022-11-20T00:21:48;0.50;;;0.30;;
3549;SDS011;45572;48.804;8.330;2022-11-20T00:24:17;0.50;;;0.30;;
3549;SDS011;45572;48.804;8.330;2022-11-20T00:26:45;0.50;;;0.40;;
3549;SDS011;45572;48.804;8.330;2022-11-20T00:29:14;0.50;;;0.30;;
3549;SDS011;45572;48.804;8.330;2022-11-20T00:31:41;0.50;;;0.30;;
3549;SDS011;45572;48.804;8.330;2022-11-20T00:34:09;0.50;;;0.43;;
3549;SDS011;45572;48.804;8.330;2022-11-20T00:36:37;0.40;;;0.30;;
3549;SDS011;45572;48.804;8.330;2022-11-20T00:39:05;0.40;;;0.30;;
3549;SDS011;45572;48.804;8.330;2022-11-20T00:41:33;0.50;;;0.30;;
3549;SDS011;45572;48.804;8.330;2022-11-20T00:44:00;0.50;;;0.30;;
3549;SDS011;45572;48.804;8.330;2022-11-20T00:46:30;0.50;;;0.40;;
3549;SDS011;45572;48.804;8.330;2022-11-20T00:48:57;0.50;;;0.30;;
3549;SDS011;45572;48.804;8.330;2022-11-20T00:51:26;0.50;;;0.30;;
3549;SDS011;45572;48.804;8.330;2022-11-20T00:53:55;1.23;;;1.02;;
3549;SDS011;45572;48.804;8.330;2022-11-20T00:56:24;0.50;;;0.30;;
3549;SDS011;45572;48.804;8.330;2022-11-20T00:58:51;0.50;;;0.30;;
3549;SDS011;45572;48.804;8.330;2022-11-20T01:01:20;0.50;;;0.50;;
3549;SDS011;45572;48.804;8.330;2022-11-20T01:03:52;2.53;;;2.42;;
3549;SDS011;45572;48.804;8.330;2022-11-20T01:06:22;0.50;;;0.30;;
3549;SDS011;45572;48.804;8.330;2022-11-20T01:08:52;0.50;;;0.30;;
3549;SDS011;45572;48.804;8.330;2022-11-20T01:11:21;0.50;;;0.40;;
3549;SDS011;45572;48.804;8.330;2022-11-20T01:13:51;0.50;;;0.30;;
3549;SDS011;45572;48.804;8.330;2022-11-20T01:16:21;0.45;;;0.30;;
3549;SDS011;45572;48.804;8.330;2022-11-20T01:18:52;0.45;;;0.30;;
3549;SDS011;45572;48.804;8.330;2022-11-20T01:21:22;6.47;;;4.47;;
3549;SDS011;45572;48.804;8.330;2022-11-20T01:23:51;6.18;;;4.18;;
3549;SDS011;45572;48.804;8.330;2022-11-20T01:26:20;5.13;;;3.38;;
3549;SDS011;45572;48.804;8.330;2022-11-20T01:28:49;4.45;;;2.95;;
3549;SDS011;45572;48.804;8.330;2022-11-20T01:31:18;5.13;;;3.25;;
3549;SDS011;45572;48.804;8.330;2022-11-20T01:33:48;4.50;;;3.20;;
3549;SDS011;45572;48.804;8.330;2022-11-20T01:36:18;8.98;;;3.45;;
3549;SDS011;45572;48.804;8.330;2022-11-20T01:38:50;5.60;;;3.42;;
3549;SDS011;45572;48.804;8.330;2022-11-20T01:41:18;5.38;;;3.30;;
3549;SDS011;45572;48.804;8.330;2022-11-20T01:44:01;2.63;;;2.42;;
3549;SDS011;45572;48.804;8.330;2022-11-20T01:46:30;3.65;;;3.20;;
3549;SDS011;45572;48.804;8.330;2022-11-20T01:48:59;5.68;;;3.20;;
3549;SDS011;45572;48.804;8.330;2022-11-20T01:51:33;4.60;;;3.20;;
3549;SDS011;45572;48.804;8.330;2022-11-20T01:54:08;4.47;;;2.58;;
3549;SDS011;45572;48.804;8.330;2022-11-20T01:56:40;4.90;;;2.88;;
3549;SDS011;45572;48.804;8.330;2022-11-20T01:59:10;3.47;;;2.85;;
3549;SDS011;45572;48.804;8.330;2022-11-20T02:01:41;3.92;;;2.67;;
3549;SDS011;45572;48.804;8.330;2022-11-20T02:04:10;4.22;;;2.70;;
3549;SDS011;45572;48.804;8.330;2022-11-20T02:06:40;3.15;;;2.40;;
3549;SDS011;45572;48.804;8.330;2022-11-20T02:09:13;7.32;;;3.88;;
3549;SDS011;45572;48.804;8.330;2022-11-20T02:11:41;5.70;;;2.90;;
3549;SDS011;45572;48.804;8.330;2022-11-20T02:14:09;4.78;;;2.85;;
3549;SDS011;45572;48.804;8.330;2022-11-20T02:16:37;7.22;;;3.55;;
3549;SDS011;45572;48.804;8.330;2022-11-20T02:19:13;4.88;;;3.50;;
3549;SDS011;45572;48.804;8.330;2022-11-20T02:21:51;4.30;;;2.95;;
3549;SDS011;45572;48.804;8.330;2022-11-20T02:24:28;3.78;;;2.75;;
3549;SDS011;45572;48.804;8.330;2022-11-20T02:26:57;6.70;;;3.22;;
3549;SDS011;45572;48.804;8.330;2022-11-20T02:29:31;4.90;;;2.95;;
3549;SDS011;45572;48.804;8.330;2022-11-20T02:32:03;4.28;;;3.33;;
3549;SDS011;45572;48.804;8.330;2022-11-20T02:34:31;4.32;;;2.85;;
3549;SDS011;45572;48.804;8.330;2022-11-20T02:36:59;9.98;;;3.17;;
3549;SDS011;45572;48.804;8.330;2022-11-20T02:39:28;4.25;;;2.85;;
3549;SDS011;45572;48.804;8.330;2022-11-20T02:41:56;3.85;;;2.90;;
3549;SDS011;45572;48.804;8.330;2022-11-20T02:44:24;7.18;;;3.45;;
3549;SDS011;45572;48.804;8.330;2022-11-20T02:46:51;4.05;;;2.60;;
3549;SDS011;45572;48.804;8.330;2022-11-20T02:49:19;5.38;;;2.22;;
3549;SDS011;45572;48.804;8.330;2022-11-20T02:51:47;4.30;;;2.47;;
3549;SDS011;45572;48.804;8.330;2022-11-20T02:54:15;4.30;;;2.60;;
3549;SDS011;45572;48.804;8.330;2022-11-20T02:56:44;4.60;;;3.00;;
3549;SDS011;45572;48.804;8.330;2022-11-20T02:59:12;5.85;;;2.90;;
3549;SDS011;45572;48.804;8.330;2022-11-20T03:01:39;3.53;;;2.78;;
3549;SDS011;45572;48.804;8.330;2022-11-20T03:04:07;5.85;;;3.35;;
3549;SDS011;45572;48.804;8.330;2022-11-20T03:06:35;3.60;;;2.50;;
3549;SDS011;45572;48.804;8.330;2022-11-20T03:09:03;10.95;;;4.88;;
3549;SDS011;45572;48.804;8.330;2022-11-20T03:11:30;4.75;;;3.17;;
3549;SDS011;45572;48.804;8.330;2022-11-20T03:14:02;4.45;;;3.00;;
3549;SDS011;45572;48.804;8.330;2022-11-20T03:16:31;3.45;;;2.30;;
3549;SDS011;45572;48.804;8.330;2022-11-20T03:18:59;4.38;;;2.17;;
3549;SDS011;45572;48.804;8.330;2022-11-20T03:21:27;4.82;;;2.53;;
3549;SDS011;45572;48.804;8.330;2022-11-20T03:23:55;4.25;;;2.85;;
3549;SDS011;45572;48.804;8.330;2022-11-20T03:26:24;5.20;;;3.03;;
3549;SDS011;45572;48.804;8.330;2022-11-20T03:28:53;3.30;;;2.55;;
3549;SDS011;45572;48.804;8.330;2022-11-20T03:31:24;3.75;;;2.75;;
3549;SDS011;45572;48.804;8.330;2022-11-20T03:33:53;4.00;;;2.90;;
3549;SDS011;45572;48.804;8.330;2022-11-20T03:36:21;5.22;;;3.03;;
3549;SDS011;45572;48.804;8.330;2022-11-20T03:38:49;4.43;;;3.20;;
3549;SDS011;45572;48.804;8.330;2022-11-20T03:41:17;4.70;;;2.85;;
3549;SDS011;45572;48.804;8.330;2022-11-20T03:43:47;6.65;;;2.90;;
3549;SDS011;45572;48.804;8.330;2022-11-20T03:46:16;4.18;;;2.30;;
3549;SDS011;45572;48.804;8.330;2022-11-20T03:48:45;4.15;;;2.45;;
3549;SDS011;45572;48.804;8.330;2022-11-20T03:51:18;2.53;;;2.20;;
3549;SDS011;45572;48.804;8.330;2022-11-20T03:53:47;3.05;;;2.25;;
3549;SDS011;45572;48.804;8.330;2022-11-20T03:56:16;8.23;;;3.30;;
3549;SDS011;45572;48.804;8.330;2022-11-20T03:58:45;4.00;;;3.17;;
3549;SDS011;45572;48.804;8.330;2022-11-20T04:01:14;2.92;;;2.30;;
3549;SDS011;45572;48.804;8.330;2022-11-20T04:03:44;2.63;;;2.28;;
3549;SDS011;45572;48.804;8.330;2022-11-20T04:06:14;6.25;;;3.22;;
3549;SDS011;45572;48.804;8.330;2022-11-20T04:08:43;4.10;;;1.95;;
3549;SDS011;45572;48.804;8.330;2022-11-20T04:11:18;4.75;;;3.40;;
3549;SDS011;45572;48.804;8.330;2022-11-20T04:13:48;6.25;;;3.10;;
3549;SDS011;45572;48.804;8.330;2022-11-20T04:16:17;4.70;;;2.92;;
3549;SDS011;45572;48.804;8.330;2022-11-20T04:18:46;4.65;;;2.20;;
3549;SDS011;45572;48.804;8.330;2022-11-20T04:21:14;7.47;;;3.25;;
3549;SDS011;45572;48.804;8.330;2022-11-20T04:23:41;4.90;;;3.22;;
3549;SDS011;45572;48.804;8.330;2022-11-20T04:26:10;6.47;;;3.70;;
3549;SDS011;45572;48.804;8.330;2022-11-20T04:28:39;4.28;;;3.03;;
3549;SDS011;45572;48.804;8.330;2022-11-20T04:31:09;6.25;;;2.88;;
3549;SDS011;45572;48.804;8.330;2022-11-20T04:33:39;4.03;;;2.63;;
3549;SDS011;45572;48.804;8.330;2022-11-20T04:36:10;3.63;;;2.67;;
3549;SDS011;45572;48.804;8.330;2022-11-20T04:38:39;5.20;;;2.85;;
3549;SDS011;45572;48.804;8.330;2022-11-20T04:41:08;6.07;;;2.60;;
3549;SDS011;45572;48.804;8.330;2022-11-20T04:43:40;3.55;;;2.97;;
3549;SDS011;45572;48.804;8.330;2022-11-20T04:46:08;4.10;;;2.50;;
3549;SDS011;45572;48.804;8.330;2022-11-20T04:48:36;3.15;;;2.33;;
3549;SDS011;45572;48.804;8.330;2022-11-20T04:51:04;6.68;;;2.50;;
3549;SDS011;45572;48.804;8.330;2022-11-20T04:53:33;7.35;;;2.55;;
3549;SDS011;45572;48.804;8.330;2022-11-20T04:56:01;4.45;;;2.40;;
3549;SDS011;45572;48.804;8.330;2022-11-20T04:58:31;4.65;;;3.85;;
3549;SDS011;45572;48.804;8.330;2022-11-20T05:01:01;5.35;;;1.95;;
3549;SDS011;45572;48.804;8.330;2022-11-20T05:03:30;2.55;;;1.77;;
3549;SDS011;45572;48.804;8.330;2022-11-20T05:05:59;3.13;;;2.60;;
3549;SDS011;45572;48.804;8.330;2022-11-20T05:08:28;3.33;;;2.40;;
3549;SDS011;45572;48.804;8.330;2022-11-20T05:11:00;3.90;;;2.13;;
3549;SDS011;45572;48.804;8.330;2022-11-20T05:13:29;3.42;;;1.67;;
3549;SDS011;45572;48.804;8.330;2022-11-20T05:16:00;5.40;;;2.00;;
3549;SDS011;45572;48.804;8.330;2022-11-20T05:18:29;5.10;;;2.28;;
3549;SDS011;45572;48.804;8.330;2022-11-20T05:20:57;4.00;;;1.88;;
3549;SDS011;45572;48.804;8.330;2022-11-20T05:23:25;3.78;;;2.10;;
3549;SDS011;45572;48.804;8.330;2022-11-20T05:25:54;3.33;;;2.05;;
3549;SDS011;45572;48.804;8.330;2022-11-20T05:28:27;4.28;;;2.80;;
3549;SDS011;45572;48.804;8.330;2022-11-20T05:30:55;2.30;;;1.70;;
3549;SDS011;45572;48.804;8.330;2022-11-20T05:33:30;3.88;;;2.05;;
3549;SDS011;45572;48.804;8.330;2022-11-20T05:35:58;3.00;;;2.10;;
3549;SDS011;45572;48.804;8.330;2022-11-20T05:38:26;3.40;;;2.15;;
3549;SDS011;45572;48.804;8.330;2022-11-20T05:40:54;2.28;;;1.45;;
3549;SDS011;45572;48.804;8.330;2022-11-20T05:43:21;3.08;;;1.92;;
3549;SDS011;45572;48.804;8.330;2022-11-20T05:45:54;2.70;;;1.40;;
3549;SDS011;45572;48.804;8.330;2022-11-20T05:48:22;1.83;;;1.13;;
3549;SDS011;45572;48.804;8.330;2022-11-20T05:50:49;2.55;;;1.67;;
3549;SDS011;45572;48.804;8.330;2022-11-20T05:53:17;2.22;;;1.48;;
3549;SDS011;45572;48.804;8.330;2022-11-20T05:55:46;2.20;;;1.00;;
3549;SDS011;45572;48.804;8.330;2022-11-20T05:58:22;1.83;;;1.30;;
3549;SDS011;45572;48.804;8.330;2022-11-20T06:00:50;2.22;;;1.20;;
3549;SDS011;45572;48.804;8.330;2022-11-20T06:03:19;2.78;;;2.00;;
3549;SDS011;45572;48.804;8.330;2022-11-20T06:05:47;2.50;;;1.02;;
3549;SDS011;45572;48.804;8.330;2022-11-20T06:08:15;1.33;;;0.95;;
3549;SDS011;45572;48.804;8.330;2022-11-20T06:10:44;1.95;;;0.95;;
3549;SDS011;45572;48.804;8.330;2022-11-20T06:13:12;3.50;;;1.35;;
3549;SDS011;45572;48.804;8.330;2022-11-20T06:15:40;5.45;;;1.20;;
3549;SDS011;45572;48.804;8.330;2022-11-20T06:18:08;1.98;;;1.42;;
3549;SDS011;45572;48.804;8.330;2022-11-20T06:20:37;1.88;;;1.38;;
3549;SDS011;45572;48.804;8.330;2022-11-20T06:23:07;4.25;;;1.15;;
3549;SDS011;45572;48.804;8.330;2022-11-20T06:25:36;4.20;;;1.50;;
3549;SDS011;45572;48.804;8.330;2022-11-20T06:28:04;3.70;;;1.13;;
3549;SDS011;45572;48.804;8.330;2022-11-20T06:30:32;1.60;;;1.30;;
3549;SDS011;45572;48.804;8.330;2022-11-20T06:33:00;2.13;;;1.13;;
3549;SDS011;45572;48.804;8.330;2022-11-20T06:35:28;1.58;;;1.20;;
3549;SDS011;45572;48.804;8.330;2022-11-20T06:37:57;1.38;;;1.00;;
3549;SDS011;45572;48.804;8.330;2022-11-20T06:40:25;5.93;;;1.52;;
3549;SDS011;45572;48.804;8.330;2022-11-20T06:42:53;1.55;;;1.05;;
3549;SDS011;45572;48.804;8.330;2022-11-20T06:45:21;1.95;;;1.45;;
3549;SDS011;45572;48.804;8.330;2022-11-20T06:47:49;2.22;;;1.05;;
3549;SDS011;45572;48.804;8.330;2022-11-20T06:50:17;2.00;;;1.40;;
3549;SDS011;45572;48.804;8.330;2022-11-20T06:52:44;2.45;;;1.65;;
3549;SDS011;45572;48.804;8.330;2022-11-20T06:55:14;3.03;;;1.52;;
3549;SDS011;45572;48.804;8.330;2022-11-20T06:57:42;2.78;;;1.45;;
3549;SDS011;45572;48.804;8.330;2022-11-20T07:00:10;4.45;;;1.45;;
3549;SDS011;45572;48.804;8.330;2022-11-20T07:02:38;2.38;;;1.50;;
3549;SDS011;45572;48.804;8.330;2022-11-20T07:05:06;1.90;;;1.65;;
3549;SDS011;45572;48.804;8.330;2022-11-20T07:07:34;3.20;;;1.52;;
3549;SDS011;45572;48.804;8.330;2022-11-20T07:10:02;2.58;;;1.52;;
3549;SDS011;45572;48.804;8.330;2022-11-20T07:12:32;2.28;;;2.05;;
3549;SDS011;45572;48.804;8.330;2022-11-20T07:14:59;3.00;;;1.20;;
3549;SDS011;45572;48.804;8.330;2022-11-20T07:17:27;3.10;;;1.70;;
3549;SDS011;45572;48.804;8.330;2022-11-20T07:19:55;1.80;;;1.70;;
3549;SDS011;45572;48.804;8.330;2022-11-20T07:22:23;2.13;;;1.40;;
3549;SDS011;45572;48.804;8.330;2022-11-20T07:24:50;2.78;;;1.95;;
3549;SDS011;45572;48.804;8.330;2022-11-20T07:27:18;1.70;;;1.08;;
3549;SDS011;45572;48.804;8.330;2022-11-20T07:29:47;2.42;;;1.60;;
3549;SDS011;45572;48.804;8.330;2022-11-20T07:32:15;2.90;;;1.38;;
3549;SDS011;45572;48.804;8.330;2022-11-20T07:34:43;1.50;;;1.23;;
3549;SDS011;45572;48.804;8.330;2022-11-20T07:37:10;2.45;;;1.30;;
3549;SDS011;45572;48.804;8.330;2022-11-20T07:39:38;3.85;;;1.70;;
3549;SDS011;45572;48.804;8.330;2022-11-20T07:42:06;4.60;;;1.58;;
3549;SDS011;45572;48.804;8.330;2022-11-20T07:44:36;3.67;;;1.90;;
3549;SDS011;45572;48.804;8.330;2022-11-20T07:47:05;3.42;;;1.75;;
3549;SDS011;45572;48.804;8.330;2022-11-20T07:49:32;1.33;;;1.08;;
3549;SDS011;45572;48.804;8.330;2022-11-20T07:52:00;2.15;;;1.30;;
3549;SDS011;45572;48.804;8.330;2022-11-20T07:54:30;2.70;;;1.40;;
3549;SDS011;45572;48.804;8.330;2022-11-20T07:56:58;2.42;;;1.55;;
3549;SDS011;45572;48.804;8.330;2022-11-20T07:59:26;2.55;;;1.40;;
3549;SDS011;45572;48.804;8.330;2022-11-20T08:01:54;3.60;;;1.30;;
3549;SDS011;45572;48.804;8.330;2022-11-20T08:04:23;3.63;;;1.45;;
3549;SDS011;45572;48.804;8.330;2022-11-20T08:06:51;1.45;;;1.17;;
3549;SDS011;45572;48.804;8.330;2022-11-20T08:09:19;2.70;;;1.40;;
3549;SDS011;45572;48.804;8.330;2022-11-20T08:11:47;3.85;;;1.30;;
3549;SDS011;45572;48.804;8.330;2022-11-20T08:14:29;2.92;;;1.70;;
3549;SDS011;45572;48.804;8.330;2022-11-20T08:16:57;2.08;;;1.20;;
3549;SDS011;45572;48.804;8.330;2022-11-20T08:19:26;1.77;;;1.33;;
3549;SDS011;45572;48.804;8.330;2022-11-20T08:21:54;2.65;;;1.33;;
3549;SDS011;45572;48.804;8.330;2022-11-20T08:24:22;2.70;;;2.22;;
3549;SDS011;45572;48.804;8.330;2022-11-20T08:26:50;2.40;;;1.50;;
3549;SDS011;45572;48.804;8.330;2022-11-20T08:29:18;3.58;;;1.60;;
3549;SDS011;45572;48.804;8.330;2022-11-20T08:31:46;6.05;;;2.10;;
3549;SDS011;45572;48.804;8.330;2022-11-20T08:34:14;3.33;;;2.50;;
3549;SDS011;45572;48.804;8.330;2022-11-20T08:36:45;4.45;;;2.55;;
3549;SDS011;45572;48.804;8.330;2022-11-20T08:39:13;4.43;;;2.53;;
3549;SDS011;45572;48.804;8.330;2022-11-20T08:41:41;5.50;;;2.47;;
3549;SDS011;45572;48.804;8.330;2022-11-20T08:44:09;3.20;;;2.17;;
3549;SDS011;45572;48.804;8.330;2022-11-20T08:46:37;4.60;;;2.42;;
3549;SDS011;45572;48.804;8.330;2022-11-20T08:49:08;7.93;;;2.65;;
3549;SDS011;45572;48.804;8.330;2022-11-20T08:51:37;3.88;;;2.35;;
3549;SDS011;45572;48.804;8.330;2022-11-20T08:54:07;3.83;;;2.80;;
3549;SDS011;45572;48.804;8.330;2022-11-20T08:56:35;6.10;;;2.50;;
3549;SDS011;45572;48.804;8.330;2022-11-20T08:59:03;3.95;;;2.63;;
3549;SDS011;45572;48.804;8.330;2022-11-20T09:01:51;3.90;;;2.55;;
3549;SDS011;45572;48.804;8.330;2022-11-20T09:04:19;4.40;;;2.83;;
3549;SDS011;45572;48.804;8.330;2022-11-20T09:06:46;3.10;;;2.40;;
3549;SDS011;45572;48.804;8.330;2022-11-20T09:09:18;2.58;;;2.15;;
3549;SDS011;45572;48.804;8.330;2022-11-20T09:11:46;2.75;;;1.92;;
3549;SDS011;45572;48.804;8.330;2022-11-20T09:14:16;3.90;;;2.70;;
3549;SDS011;45572;48.804;8.330;2022-11-20T09:16:44;2.83;;;2.05;;
3549;SDS011;45572;48.804;8.330;2022-11-20T09:19:12;6.35;;;2.70;;
3549;SDS011;45572;48.804;8.330;2022-11-20T09:22:00;6.40;;;2.95;;
3549;SDS011;45572;48.804;8.330;2022-11-20T09:24:29;3.70;;;2.80;;
3549;SDS011;45572;48.804;8.330;2022-11-20T09:26:56;3.40;;;2.78;;
3549;SDS011;45572;48.804;8.330;2022-11-20T09:29:24;5.25;;;2.13;;
3549;SDS011;45572;48.804;8.330;2022-11-20T09:31:54;3.10;;;2.40;;
3549;SDS011;45572;48.804;8.330;2022-11-20T09:34:21;7.30;;;3.10;;
3549;SDS011;45572;48.804;8.330;2022-11-20T09:36:49;3.38;;;2.75;;
3549;SDS011;45572;48.804;8.330;2022-11-20T09:39:17;3.63;;;2.60;;
3549;SDS011;45572;48.804;8.330;2022-11-20T09:41:50;4.35;;;3.03;;
3549;SDS011;45572;48.804;8.330;2022-11-20T09:44:37;6.22;;;3.85;;
3549;SDS011;45572;48.804;8.330;2022-11-20T09:47:16;4.20;;;3.22;;
3549;SDS011;45572;48.804;8.330;2022-11-20T09:49:59;7.32;;;4.07;;
3549;SDS011;45572;48.804;8.330;2022-11-20T09:52:39;4.68;;;3.38;;
3549;SDS011;45572;48.804;8.330;2022-11-20T09:55:17;3.72;;;2.78;;
3549;SDS011;45572;48.804;8.330;2022-11-20T09:57:48;4.15;;;3.00;;
3549;SDS011;45572;48.804;8.330;2022-11-20T10:00:18;3.78;;;2.53;;
3549;SDS011;45572;48.804;8.330;2022-11-20T10:02:48;4.00;;;2.60;;
3549;SDS011;45572;48.804;8.330;2022-11-20T10:05:25;3.80;;;2.58;;
3549;SDS011;45572;48.804;8.330;2022-11-20T10:07:59;5.45;;;3.05;;
3549;SDS011;45572;48.804;8.330;2022-11-20T10:10:40;3.85;;;2.85;;
3549;SDS011;45572;48.804;8.330;2022-11-20T10:13:27;6.20;;;3.08;;
3549;SDS011;45572;48.804;8.330;2022-11-20T10:16:09;9.60;;;3.00;;
3549;SDS011;45572;48.804;8.330;2022-11-20T10:18:50;3.65;;;2.50;;
3549;SDS011;45572;48.804;8.330;2022-11-20T10:21:30;7.50;;;2.80;;
3549;SDS011;45572;48.804;8.330;2022-11-20T10:24:11;4.00;;;2.25;;
3549;SDS011;45572;48.804;8.330;2022-11-20T10:26:58;3.17;;;2.20;;
3549;SDS011;45572;48.804;8.330;2022-11-20T10:29:39;5.45;;;2.58;;
3549;SDS011;45572;48.804;8.330;2022-11-20T10:32:16;8.65;;;2.22;;
3549;SDS011;45572;48.804;8.330;2022-11-20T10:34:46;4.32;;;2.20;;
3549;SDS011;45572;48.804;8.330;2022-11-20T10:37:19;4.03;;;2.95;;
3549;SDS011;45572;48.804;8.330;2022-11-20T10:40:01;3.33;;;2.60;;
3549;SDS011;45572;48.804;8.330;2022-11-20T10:42:45;4.57;;;2.55;;
3549;SDS011;45572;48.804;8.330;2022-11-20T10:45:30;3.20;;;1.92;;
3549;SDS011;45572;48.804;8.330;2022-11-20T10:48:09;5.00;;;2.40;;
3549;SDS011;45572;48.804;8.330;2022-11-20T10:50:51;6.15;;;2.50;;
3549;SDS011;45572;48.804;8.330;2022-11-20T10:53:32;7.43;;;2.83;;
3549;SDS011;45572;48.804;8.330;2022-11-20T10:56:17;3.67;;;2.15;;
3549;SDS011;45572;48.804;8.330;2022-11-20T10:58:51;5.38;;;2.08;;
3549;SDS011;45572;48.804;8.330;2022-11-20T11:01:29;2.95;;;2.45;;
3549;SDS011;45572;48.804;8.330;2022-11-20T11:03:57;6.05;;;2.30;;
3549;SDS011;45572;48.804;8.330;2022-11-20T11:06:28;3.30;;;2.50;;
3549;SDS011;45572;48.804;8.330;2022-11-20T11:09:02;2.55;;;2.25;;
3549;SDS011;45572;48.804;8.330;2022-11-20T11:11:37;5.65;;;2.00;;
3549;SDS011;45572;48.804;8.330;2022-11-20T11:14:06;3.00;;;2.42;;
3549;SDS011;45572;48.804;8.330;2022-11-20T11:16:40;4.30;;;2.35;;
3549;SDS011;45572;48.804;8.330;2022-11-20T11:19:16;4.47;;;2.40;;
3549;SDS011;45572;48.804;8.330;2022-11-20T11:21:45;3.40;;;2.47;;
3549;SDS011;45572;48.804;8.330;2022-11-20T11:24:21;3.72;;;2.65;;
3549;SDS011;45572;48.804;8.330;2022-11-20T11:27:11;3.35;;;2.10;;
3549;SDS011;45572;48.804;8.330;2022-11-20T11:29:43;4.63;;;2.00;;
3549;SDS011;45572;48.804;8.330;2022-11-20T11:32:13;2.00;;;1.80;;
3549;SDS011;45572;48.804;8.330;2022-11-20T11:34:42;7.25;;;2.20;;
3549;SDS011;45572;48.804;8.330;2022-11-20T11:37:10;2.55;;;2.05;;
3549;SDS011;45572;48.804;8.330;2022-11-20T11:39:44;4.60;;;2.45;;
3549;SDS011;45572;48.804;8.330;2022-11-20T11:42:29;3.40;;;2.28;;
3549;SDS011;45572;48.804;8.330;2022-11-20T11:44:58;4.28;;;2.13;;
3549;SDS011;45572;48.804;8.330;2022-11-20T11:47:36;3.75;;;2.20;;
3549;SDS011;45572;48.804;8.330;2022-11-20T11:50:15;7.13;;;2.15;;
3549;SDS011;45572;48.804;8.330;2022-11-20T11:52:45;4.60;;;3.65;;
3549;SDS011;45572;48.804;8.330;2022-11-20T11:55:20;2.13;;;1.65;;
3549;SDS011;45572;48.804;8.330;2022-11-20T11:57:54;3.05;;;2.20;;
3549;SDS011;45572;48.804;8.330;2022-11-20T12:00:27;2.33;;;1.90;;
3549;SDS011;45572;48.804;8.330;2022-11-20T12:03:00;4.32;;;1.70;;
3549;SDS011;45572;48.804;8.330;2022-11-20T12:05:37;1.98;;;1.40;;
3549;SDS011;45572;48.804;8.330;2022-11-20T12:08:12;2.10;;;1.65;;
3549;SDS011;45572;48.804;8.330;2022-11-20T12:10:47;2.95;;;1.75;;
3549;SDS011;45572;48.804;8.330;2022-11-20T12:13:26;2.50;;;1.25;;
3549;SDS011;45572;48.804;8.330;2022-11-20T12:16:02;5.80;;;2.00;;
3549;SDS011;45572;48.804;8.330;2022-11-20T12:18:32;3.05;;;1.88;;
3549;SDS011;45572;48.804;8.330;2022-11-20T12:21:03;4.20;;;1.17;;
3549;SDS011;45572;48.804;8.330;2022-11-20T12:23:43;4.22;;;2.90;;
3549;SDS011;45572;48.804;8.330;2022-11-20T12:26:19;7.00;;;4.47;;
3549;SDS011;45572;48.804;8.330;2022-11-20T12:29:01;3.28;;;2.55;;
3549;SDS011;45572;48.804;8.330;2022-11-20T12:31:43;1.40;;;1.08;;
3549;SDS011;45572;48.804;8.330;2022-11-20T12:34:30;3.58;;;1.80;;
3549;SDS011;45572;48.804;8.330;2022-11-20T12:37:13;6.05;;;2.58;;
3549;SDS011;45572;48.804;8.330;2022-11-20T12:39:50;2.50;;;1.73;;
3549;SDS011;45572;48.804;8.330;2022-11-20T12:42:27;3.75;;;1.80;;
3549;SDS011;45572;48.804;8.330;2022-11-20T12:45:25;4.97;;;2.42;;
3549;SDS011;45572;48.804;8.330;2022-11-20T12:48:05;2.40;;;1.25;;
3549;SDS011;45572;48.804;8.330;2022-11-20T12:50:59;4.10;;;1.52;;
3549;SDS011;45572;48.804;8.330;2022-11-20T12:53:43;2.45;;;1.40;;
3549;SDS011;45572;48.804;8.330;2022-11-20T12:56:23;3.03;;;1.65;;
3549;SDS011;45572;48.804;8.330;2022-11-20T12:59:02;1.90;;;1.30;;
3549;SDS011;45572;48.804;8.330;2022-11-20T13:01:47;3.05;;;1.30;;
3549;SDS011;45572;48.804;8.330;2022-11-20T13:04:23;1.55;;;0.85;;
3549;SDS011;45572;48.804;8.330;2022-11-20T13:07:10;2.13;;;1.20;;
3549;SDS011;45572;48.804;8.330;2022-11-20T13:09:44;2.22;;;0.60;;
3549;SDS011;45572;48.804;8.330;2022-11-20T13:12:15;3.47;;;2.17;;
3549;SDS011;45572;48.804;8.330;2022-11-20T13:14:51;3.40;;;1.10;;
3549;SDS011;45572;48.804;8.330;2022-11-20T13:17:27;3.28;;;0.90;;
3549;SDS011;45572;48.804;8.330;2022-11-20T13:20:00;7.53;;;1.23;;
3549;SDS011;45572;48.804;8.330;2022-11-20T13:22:42;5.93;;;2.38;;
3549;SDS011;45572;48.804;8.330;2022-11-20T13:25:21;6.75;;;2.50;;
3549;SDS011;45572;48.804;8.330;2022-11-20T13:27:51;1.73;;;0.90;;
3549;SDS011;45572;48.804;8.330;2022-11-20T13:30:19;1.83;;;1.30;;
3549;SDS011;45572;48.804;8.330;2022-11-20T13:32:49;3.05;;;1.40;;
3549;SDS011;45572;48.804;8.330;2022-11-20T13:35:27;1.80;;;0.90;;
3549;SDS011;45572;48.804;8.330;2022-11-20T13:38:00;5.00;;;1.40;;
3549;SDS011;45572;48.804;8.330;2022-11-20T13:40:30;4.05;;;1.92;;
3549;SDS011;45572;48.804;8.330;2022-11-20T13:43:04;2.95;;;1.48;;
3549;SDS011;45572;48.804;8.330;2022-11-20T13:45:42;1.95;;;1.00;;
3549;SDS011;45572;48.804;8.330;2022-11-20T13:48:21;2.17;;;1.20;;
3549;SDS011;45572;48.804;8.330;2022-11-20T13:50:54;2.67;;;1.83;;
3549;SDS011;45572;48.804;8.330;2022-11-20T13:53:36;1.75;;;1.17;;
3549;SDS011;45572;48.804;8.330;2022-11-20T13:56:18;2.80;;;1.00;;
3549;SDS011;45572;48.804;8.330;2022-11-20T13:58:55;2.55;;;0.70;;
3549;SDS011;45572;48.804;8.330;2022-11-20T14:01:31;4.80;;;0.80;;
3549;SDS011;45572;48.804;8.330;2022-11-20T14:04:05;1.50;;;1.20;;
3549;SDS011;45572;48.804;8.330;2022-11-20T14:06:38;5.85;;;1.90;;
3549;SDS011;45572;48.804;8.330;2022-11-20T14:09:11;2.53;;;1.10;;
3549;SDS011;45572;48.804;8.330;2022-11-20T14:11:45;1.42;;;0.70;;
3549;SDS011;45572;48.804;8.330;2022-11-20T14:14:15;1.90;;;1.05;;
3549;SDS011;45572;48.804;8.330;2022-11-20T14:16:45;5.53;;;1.70;;
3549;SDS011;45572;48.804;8.330;2022-11-20T14:19:24;7.00;;;1.38;;
3549;SDS011;45572;48.804;8.330;2022-11-20T14:22:07;2.15;;;1.00;;
3549;SDS011;45572;48.804;8.330;2022-11-20T14:24:39;3.15;;;1.23;;
3549;SDS011;45572;48.804;8.330;2022-11-20T14:27:11;2.47;;;1.10;;
3549;SDS011;45572;48.804;8.330;2022-11-20T14:29:41;2.50;;;0.95;;
3549;SDS011;45572;48.804;8.330;2022-11-20T14:32:10;2.65;;;1.00;;
3549;SDS011;45572;48.804;8.330;2022-11-20T14:34:39;2.38;;;1.05;;
3549;SDS011;45572;48.804;8.330;2022-11-20T14:37:10;4.45;;;0.60;;
3549;SDS011;45572;48.804;8.330;2022-11-20T14:39:48;4.53;;;1.25;;
3549;SDS011;45572;48.804;8.330;2022-11-20T14:42:19;2.28;;;0.90;;
3549;SDS011;45572;48.804;8.330;2022-11-20T14:44:48;3.15;;;1.40;;
3549;SDS011;45572;48.804;8.330;2022-11-20T14:47:18;1.70;;;0.90;;
3549;SDS011;45572;48.804;8.330;2022-11-20T14:49:48;2.90;;;1.10;;
3549;SDS011;45572;48.804;8.330;2022-11-20T14:52:19;1.38;;;0.82;;
3549;SDS011;45572;48.804;8.330;2022-11-20T14:54:50;2.25;;;1.10;;
3549;SDS011;45572;48.804;8.330;2022-11-20T14:57:21;3.30;;;1.20;;
3549;SDS011;45572;48.804;8.330;2022-11-20T14:59:51;1.10;;;0.80;;
3549;SDS011;45572;48.804;8.330;2022-11-20T15:02:30;1.30;;;0.85;;
3549;SDS011;45572;48.804;8.330;2022-11-20T15:04:58;2.05;;;1.00;;
3549;SDS011;45572;48.804;8.330;2022-11-20T15:07:30;3.17;;;1.45;;
3549;SDS011;45572;48.804;8.330;2022-11-20T15:10:02;1.85;;;0.73;;
3549;SDS011;45572;48.804;8.330;2022-11-20T15:12:31;2.05;;;0.80;;
3549;SDS011;45572;48.804;8.330;2022-11-20T15:15:01;1.75;;;0.85;;
3549;SDS011;45572;48.804;8.330;2022-11-20T15:17:31;2.17;;;0.90;;
3549;SDS011;45572;48.804;8.330;2022-11-20T15:20:02;1.85;;;0.90;;
3549;SDS011;45572;48.804;8.330;2022-11-20T15:22:37;1.20;;;0.80;;
3549;SDS011;45572;48.804;8.330;2022-11-20T15:25:10;5.65;;;2.17;;
3549;SDS011;45572;48.804;8.330;2022-11-20T15:27:39;5.70;;;1.52;;